El Plumerillo, Argentina
Current Conditions -  °F | °C
As of 10:00 AM on Monday 22 Dec 2014 (Local Time) from SAME Reporting Station
Clear Clear  
Wind Chill: 59°   Ceiling: Unl
Heat Index: 59°   Visibility: 6mi
Dew Point: 30°   Wind: 7mph
Humidity: 34%   Direction: 140°SE
Pressure: 30.21"   Gusts: NA
Location:  32.83°S, 68.78°W
Report Text: SAME 221300Z 14006KT CAVOK 15/M01 Q1023
Loading
Personal Weather Stations






























Interactive Weather Map New forecast layout! Learn more

10-Day Weather Forecast

Advertisements
Track Severe Weather on mobile